Time;durP1;ratioP1;P1;durP2;ratioP2;P2;SDS_P1;SDS_P2;PMS_P1;PMS_P2;Temp;Humidity;BMP_temperature;BMP_pressure;BME280_temperature;BME280_humidity;BME280_pressure;Samples;Min_cycle;Max_cycle;Signal;HPM_P1;HPM_P2
2023/08/29 00:00:10;;;;;;;;;;;22.20;45.60;;;;;;1518293;77;1139;-53
2023/08/29 00:02:13;;;;;;;;;;;22.10;45.50;;;;;;1520376;77;776;-52
2023/08/29 00:04:15;;;;;;;;;;;22.10;45.60;;;;;;1518519;77;800;-53
2023/08/29 00:06:17;;;;;;;;;;;22.10;45.60;;;;;;1515193;77;749;-54
2023/08/29 00:08:19;;;;;;;;;;;22.20;45.50;;;;;;1511025;77;736;-51
2023/08/29 00:10:21;;;;;;;;;;;22.00;45.30;;;;;;1520551;77;1139;-54
2023/08/29 00:12:23;;;;;;;;;;;22.00;45.30;;;;;;1530738;77;716;-54
2023/08/29 00:14:25;;;;;;;;;;;22.10;45.40;;;;;;1517935;77;784;-54
2023/08/29 00:16:27;;;;;;;;;;;22.00;45.30;;;;;;1520195;77;1507;-52
2023/08/29 00:18:28;;;;;;;;;;;22.00;45.50;;;;;;1519330;77;1950;-55
2023/08/29 00:20:30;;;;;;;;;;;22.00;45.40;;;;;;1523663;77;1179;-54
2023/08/29 00:22:32;;;;;;;;;;;22.00;45.40;;;;;;1516126;77;799;-55
2023/08/29 00:24:34;;;;;;;;;;;22.00;45.50;;;;;;1520476;77;854;-53
2023/08/29 00:26:36;;;;;;;;;;;22.00;45.50;;;;;;1515050;77;891;-54
2023/08/29 00:28:38;;;;;;;;;;;22.00;45.50;;;;;;1524620;77;705;-53
2023/08/29 00:30:40;;;;;;;;;;;22.10;45.50;;;;;;1511174;77;1191;-53
2023/08/29 00:32:42;;;;;;;;;;;22.00;45.30;;;;;;1517295;77;802;-51
2023/08/29 00:34:44;;;;;;;;;;;22.00;45.30;;;;;;1511276;77;706;-55
2023/08/29 00:36:46;;;;;;;;;;;22.00;45.20;;;;;;1518511;77;721;-54
2023/08/29 00:38:47;;;;;;;;;;;22.00;45.20;;;;;;1518660;77;1889;-54
2023/08/29 00:40:49;;;;;;;;;;;22.00;45.20;;;;;;1521718;77;1130;-54
2023/08/29 00:42:51;;;;;;;;;;;22.00;45.20;;;;;;1515144;77;710;-53
2023/08/29 00:44:53;;;;;;;;;;;22.00;45.10;;;;;;1517037;77;769;-50
2023/08/29 00:46:55;;;;;;;;;;;22.00;45.10;;;;;;1519254;77;662;-53
2023/08/29 00:48:57;;;;;;;;;;;22.00;45.10;;;;;;1519394;77;723;-52
2023/08/29 00:50:59;;;;;;;;;;;22.00;45.00;;;;;;1520238;77;1073;-54
2023/08/29 00:53:03;;;;;;;;;;;22.00;45.00;;;;;;1518829;77;782;-55
2023/08/29 00:55:05;;;;;;;;;;;22.00;45.00;;;;;;1509049;77;1740;-52
2023/08/29 00:57:07;;;;;;;;;;;21.90;45.00;;;;;;1517649;77;756;-53
2023/08/29 00:59:09;;;;;;;;;;;22.00;45.00;;;;;;1517384;77;1944;-54
2023/08/29 01:01:12;;;;;;;;;;;21.90;44.90;;;;;;1508497;77;708;-54
2023/08/29 01:03:14;;;;;;;;;;;21.90;45.00;;;;;;1512662;77;699;-54
2023/08/29 01:05:16;;;;;;;;;;;22.00;45.00;;;;;;1518643;77;781;-55
2023/08/29 01:07:18;;;;;;;;;;;21.90;45.00;;;;;;1518445;77;664;-53
2023/08/29 01:09:19;;;;;;;;;;;22.00;45.00;;;;;;1521552;77;1136;-54
2023/08/29 01:11:23;;;;;;;;;;;21.90;45.00;;;;;;1507265;77;1525;-54
2023/08/29 01:13:32;;;;;;;;;;;21.90;45.00;;;;;;1512002;77;667;-51
2023/08/29 01:15:34;;;;;;;;;;;22.00;45.10;;;;;;1523724;76;1832;-53
2023/08/29 01:17:38;;;;;;;;;;;21.90;45.00;;;;;;1519874;77;688;-54
2023/08/29 01:19:40;;;;;;;;;;;21.90;44.90;;;;;;1514934;77;1931;-52
2023/08/29 01:21:50;;;;;;;;;;;21.90;44.70;;;;;;1515788;77;790;-52
2023/08/29 01:23:53;;;;;;;;;;;21.90;44.70;;;;;;1523396;77;712;-51
2023/08/29 01:26:13;;;;;;;;;;;21.80;44.40;;;;;;1518739;77;951;-53
2023/08/29 01:28:15;;;;;;;;;;;21.80;44.50;;;;;;1514162;77;887;-53
2023/08/29 01:30:17;;;;;;;;;;;21.80;44.60;;;;;;1518276;77;1182;-54
2023/08/29 01:32:19;;;;;;;;;;;21.70;44.60;;;;;;1517867;77;679;-52
2023/08/29 01:34:21;;;;;;;;;;;21.70;44.60;;;;;;1506643;77;784;-54
2023/08/29 01:36:23;;;;;;;;;;;21.80;44.50;;;;;;1518619;77;585;-52
2023/08/29 01:38:25;;;;;;;;;;;21.80;44.60;;;;;;1488047;78;1933;-50
2023/08/29 01:40:27;;;;;;;;;;;21.70;44.60;;;;;;1460994;80;1101;-53
2023/08/29 01:42:28;;;;;;;;;;;21.70;44.60;;;;;;1488655;77;814;-52
2023/08/29 01:44:30;;;;;;;;;;;21.70;44.70;;;;;;1498112;78;787;-51
2023/08/29 01:46:32;;;;;;;;;;;21.70;44.60;;;;;;1500752;77;716;-53
2023/08/29 01:48:34;;;;;;;;;;;21.70;44.70;;;;;;1500016;78;733;-53
2023/08/29 01:50:36;;;;;;;;;;;21.70;44.70;;;;;;1494553;77;1145;-53
2023/08/29 01:52:38;;;;;;;;;;;21.70;44.70;;;;;;1498833;77;690;-50
2023/08/29 01:54:40;;;;;;;;;;;21.70;44.70;;;;;;1500015;77;734;-54
2023/08/29 01:56:42;;;;;;;;;;;21.60;44.60;;;;;;1502092;78;728;-54
2023/08/29 01:58:44;;;;;;;;;;;21.70;44.80;;;;;;1503993;77;1949;-53
2023/08/29 02:00:45;;;;;;;;;;;21.60;44.60;;;;;;1495269;78;1210;-52
2023/08/29 02:02:47;;;;;;;;;;;21.70;44.80;;;;;;1507674;77;828;-54
2023/08/29 02:04:49;;;;;;;;;;;21.70;44.90;;;;;;1515147;77;756;-51
2023/08/29 02:06:51;;;;;;;;;;;21.70;44.90;;;;;;1496215;77;801;-50
2023/08/29 02:08:53;;;;;;;;;;;21.70;44.90;;;;;;1498081;78;1611;-54
2023/08/29 02:10:56;;;;;;;;;;;21.70;45.00;;;;;;1501867;77;1116;-52
2023/08/29 02:12:57;;;;;;;;;;;21.60;44.90;;;;;;1507745;77;686;-52
2023/08/29 02:15:19;;;;;;;;;;;21.70;45.00;;;;;;1499196;78;715;-53
2023/08/29 02:17:20;;;;;;;;;;;21.60;45.00;;;;;;1490650;78;684;-54
2023/08/29 02:19:22;;;;;;;;;;;21.60;45.00;;;;;;1486525;78;1954;-50
2023/08/29 02:21:24;;;;;;;;;;;21.60;45.10;;;;;;1457739;80;695;-51
2023/08/29 02:23:26;;;;;;;;;;;21.60;45.20;;;;;;1476816;79;774;-54
2023/08/29 02:25:28;;;;;;;;;;;21.70;45.30;;;;;;1477853;79;677;-54
2023/08/29 02:27:32;;;;;;;;;;;21.70;45.30;;;;;;1465385;80;753;-50
2023/08/29 02:29:34;;;;;;;;;;;21.70;45.30;;;;;;1465781;79;1178;-54
2023/08/29 02:31:36;;;;;;;;;;;21.70;45.40;;;;;;1449428;80;727;-53
2023/08/29 02:33:38;;;;;;;;;;;21.70;45.40;;;;;;1526510;76;695;-51
2023/08/29 02:35:40;;;;;;;;;;;21.70;45.50;;;;;;1514102;76;741;-53
2023/08/29 02:37:42;;;;;;;;;;;21.70;45.50;;;;;;1522588;77;698;-52
2023/08/29 02:39:44;;;;;;;;;;;21.70;45.50;;;;;;1520746;76;1948;-53
2023/08/29 02:41:45;;;;;;;;;;;21.70;45.50;;;;;;1526392;76;762;-50
2023/08/29 02:43:47;;;;;;;;;;;21.70;45.60;;;;;;1522697;76;685;-52
2023/08/29 02:45:50;;;;;;;;;;;21.60;45.50;;;;;;1515391;76;781;-51
2023/08/29 02:47:52;;;;;;;;;;;21.70;45.50;;;;;;1522349;76;742;-52
2023/08/29 02:49:54;;;;;;;;;;;21.70;45.60;;;;;;1526872;76;1132;-51
2023/08/29 02:51:56;;;;;;;;;;;21.70;45.60;;;;;;1510443;76;755;-54
2023/08/29 02:53:58;;;;;;;;;;;21.70;45.60;;;;;;1524611;76;784;-52
2023/08/29 02:56:00;;;;;;;;;;;21.70;45.60;;;;;;1520880;76;748;-54
2023/08/29 02:58:02;;;;;;;;;;;21.70;45.70;;;;;;1524348;76;745;-54
2023/08/29 03:00:05;;;;;;;;;;;21.70;45.70;;;;;;1506977;76;1904;-53
2023/08/29 03:02:07;;;;;;;;;;;21.80;45.70;;;;;;1526748;76;744;-54
2023/08/29 03:04:09;;;;;;;;;;;21.70;45.70;;;;;;1516349;76;1537;-53
2023/08/29 03:06:11;;;;;;;;;;;21.80;45.70;;;;;;1526566;76;809;-53
2023/08/29 03:08:13;;;;;;;;;;;21.80;45.70;;;;;;1516500;76;786;-54
2023/08/29 03:10:14;;;;;;;;;;;21.80;45.70;;;;;;1509456;76;1131;-54
2023/08/29 03:12:16;;;;;;;;;;;21.70;45.70;;;;;;1535775;77;743;-54
2023/08/29 03:14:18;;;;;;;;;;;21.70;45.80;;;;;;1523325;77;674;-53
2023/08/29 03:16:20;;;;;;;;;;;21.70;45.80;;;;;;1526637;76;780;-51
2023/08/29 03:18:22;;;;;;;;;;;21.80;45.90;;;;;;1525807;76;659;-53
2023/08/29 03:20:24;;;;;;;;;;;21.80;46.00;;;;;;1520950;76;1936;-54
2023/08/29 03:22:26;;;;;;;;;;;21.80;46.00;;;;;;1509114;76;759;-52
2023/08/29 03:24:28;;;;;;;;;;;21.80;45.90;;;;;;1527209;76;813;-54
2023/08/29 03:26:30;;;;;;;;;;;21.80;45.90;;;;;;1526490;76;734;-52
2023/08/29 03:28:33;;;;;;;;;;;21.80;45.90;;;;;;1527730;76;726;-53
2023/08/29 03:30:35;;;;;;;;;;;21.90;46.10;;;;;;1511660;76;1221;-54
2023/08/29 03:32:37;;;;;;;;;;;21.80;45.90;;;;;;1526690;76;782;-54
2023/08/29 03:34:38;;;;;;;;;;;21.90;46.00;;;;;;1528864;76;744;-53
2023/08/29 03:36:41;;;;;;;;;;;21.80;45.80;;;;;;1518762;76;746;-54
2023/08/29 03:38:42;;;;;;;;;;;21.90;46.00;;;;;;1515537;76;1921;-53
2023/08/29 03:40:44;;;;;;;;;;;21.80;45.90;;;;;;1521883;76;1146;-54
2023/08/29 03:42:47;;;;;;;;;;;21.80;45.80;;;;;;1522380;76;690;-51
2023/08/29 03:44:48;;;;;;;;;;;21.80;45.80;;;;;;1520107;76;735;-51
2023/08/29 03:46:50;;;;;;;;;;;21.80;45.80;;;;;;1529087;76;723;-52
2023/08/29 03:48:52;;;;;;;;;;;21.80;45.70;;;;;;1533982;76;740;-53
2023/08/29 03:50:55;;;;;;;;;;;21.70;45.90;;;;;;1534084;76;1131;-54
2023/08/29 03:52:58;;;;;;;;;;;21.70;45.70;;;;;;1519144;76;759;-54
2023/08/29 03:55:00;;;;;;;;;;;21.70;45.80;;;;;;1520490;76;880;-54
2023/08/29 03:57:02;;;;;;;;;;;21.70;45.90;;;;;;1526564;76;747;-51
2023/08/29 03:59:04;;;;;;;;;;;21.70;45.80;;;;;;1532831;76;1912;-53
2023/08/29 04:01:06;;;;;;;;;;;21.70;46.00;;;;;;1507432;76;1551;-52
2023/08/29 04:03:07;;;;;;;;;;;21.60;45.80;;;;;;1531609;76;630;-51
2023/08/29 04:05:17;;;;;;;;;;;21.60;45.90;;;;;;1529286;76;724;-53
2023/08/29 04:07:16;;;;;;;;;;;21.70;46.10;;;;;;1521653;75;1660;-53
2023/08/29 04:09:18;;;;;;;;;;;21.70;46.20;;;;;;1514258;77;1154;-52
2023/08/29 04:11:20;;;;;;;;;;;21.70;46.20;;;;;;1531062;76;716;-52
2023/08/29 04:13:22;;;;;;;;;;;21.70;46.20;;;;;;1516490;77;733;-54
2023/08/29 04:15:24;;;;;;;;;;;21.70;46.20;;;;;;1516457;76;741;-52
2023/08/29 04:17:25;;;;;;;;;;;21.70;46.20;;;;;;1526258;77;791;-54
2023/08/29 04:19:27;;;;;;;;;;;21.70;46.30;;;;;;1526334;76;1975;-54
2023/08/29 04:21:29;;;;;;;;;;;21.70;46.30;;;;;;1524627;76;734;-52
2023/08/29 04:23:31;;;;;;;;;;;21.70;46.20;;;;;;1514927;76;704;-54
2023/08/29 04:25:36;;;;;;;;;;;21.70;46.30;;;;;;1525306;77;710;-55
2023/08/29 04:27:39;;;;;;;;;;;21.70;46.20;;;;;;1525349;76;1112;-53
2023/08/29 04:29:41;;;;;;;;;;;21.70;46.30;;;;;;1514151;76;1121;-51
2023/08/29 04:31:43;;;;;;;;;;;21.70;46.20;;;;;;1492280;78;1481;-53
2023/08/29 04:33:45;;;;;;;;;;;21.70;46.10;;;;;;1490110;78;833;-53
2023/08/29 04:35:49;;;;;;;;;;;21.70;46.10;;;;;;1490847;78;797;-53
2023/08/29 04:37:51;;;;;;;;;;;21.70;46.10;;;;;;1467926;79;1388;-53
2023/08/29 04:39:53;;;;;;;;;;;21.70;46.10;;;;;;1462966;79;1928;-51
2023/08/29 04:41:54;;;;;;;;;;;21.70;46.10;;;;;;1462002;79;789;-53
2023/08/29 04:43:56;;;;;;;;;;;21.60;46.00;;;;;;1480526;79;761;-52
2023/08/29 04:45:58;;;;;;;;;;;21.70;46.20;;;;;;1453356;79;742;-54
2023/08/29 04:48:00;;;;;;;;;;;21.80;46.20;;;;;;1465917;79;722;-51
2023/08/29 04:50:03;;;;;;;;;;;21.70;46.30;;;;;;1468201;79;1154;-53
2023/08/29 04:52:05;;;;;;;;;;;21.80;46.30;;;;;;1459684;79;735;-54
2023/08/29 04:54:07;;;;;;;;;;;21.70;46.20;;;;;;1470259;79;772;-54
2023/08/29 04:56:10;;;;;;;;;;;21.70;46.30;;;;;;1470539;79;1574;-52
2023/08/29 04:58:12;;;;;;;;;;;21.80;46.20;;;;;;1471467;79;669;-52
2023/08/29 05:00:14;;;;;;;;;;;21.80;46.20;;;;;;1463542;79;1945;-53
2023/08/29 05:02:16;;;;;;;;;;;21.80;46.30;;;;;;1453886;79;718;-54
2023/08/29 05:04:18;;;;;;;;;;;21.70;46.30;;;;;;1455643;79;729;-54
2023/08/29 05:06:20;;;;;;;;;;;21.80;46.30;;;;;;1463199;79;715;-52
2023/08/29 05:08:22;;;;;;;;;;;21.70;46.30;;;;;;1468622;79;780;-54
2023/08/29 05:10:24;;;;;;;;;;;21.80;46.30;;;;;;1468221;79;1236;-52
2023/08/29 05:12:26;;;;;;;;;;;21.70;46.30;;;;;;1472447;79;705;-52
2023/08/29 05:14:28;;;;;;;;;;;21.80;46.20;;;;;;1466635;79;802;-53
2023/08/29 05:16:32;;;;;;;;;;;21.80;46.20;;;;;;1453598;79;779;-54
2023/08/29 05:18:33;;;;;;;;;;;21.80;46.30;;;;;;1467448;79;1589;-52
2023/08/29 05:20:35;;;;;;;;;;;21.70;46.30;;;;;;1472719;79;1966;-52
2023/08/29 05:22:37;;;;;;;;;;;21.70;46.30;;;;;;1463019;79;718;-54
2023/08/29 05:24:39;;;;;;;;;;;21.70;46.30;;;;;;1447807;79;750;-52
2023/08/29 05:26:41;;;;;;;;;;;21.70;46.30;;;;;;1473896;79;807;-53
2023/08/29 05:28:43;;;;;;;;;;;21.80;46.30;;;;;;1455414;79;765;-54
2023/08/29 05:30:45;;;;;;;;;;;21.80;46.30;;;;;;1469499;79;1115;-52
2023/08/29 05:32:47;;;;;;;;;;;21.70;46.30;;;;;;1462320;79;736;-52
2023/08/29 05:34:48;;;;;;;;;;;21.70;46.30;;;;;;1455990;79;800;-53
2023/08/29 05:36:51;;;;;;;;;;;21.70;46.30;;;;;;1469607;79;796;-52
2023/08/29 05:38:52;;;;;;;;;;;21.70;46.40;;;;;;1472963;79;781;-52
2023/08/29 05:40:56;;;;;;;;;;;21.70;46.40;;;;;;1458655;79;1945;-53
2023/08/29 05:42:58;;;;;;;;;;;21.70;46.40;;;;;;1466588;79;723;-53
2023/08/29 05:44:59;;;;;;;;;;;21.70;46.40;;;;;;1469650;79;698;-52
2023/08/29 05:47:01;;;;;;;;;;;21.70;46.40;;;;;;1455352;79;831;-54
2023/08/29 05:49:03;;;;;;;;;;;21.80;46.40;;;;;;1454906;79;753;-53
2023/08/29 05:51:05;;;;;;;;;;;21.80;46.50;;;;;;1464801;79;1093;-55
2023/08/29 05:53:07;;;;;;;;;;;21.80;46.50;;;;;;1459569;79;1431;-51
2023/08/29 05:55:09;;;;;;;;;;;21.70;46.50;;;;;;1455822;79;706;-54
2023/08/29 05:57:11;;;;;;;;;;;21.70;46.50;;;;;;1472876;79;655;-53
2023/08/29 05:59:13;;;;;;;;;;;21.80;46.50;;;;;;1471377;79;1165;-51
2023/08/29 06:01:14;;;;;;;;;;;21.80;46.60;;;;;;1467761;79;1943;-54
2023/08/29 06:03:16;;;;;;;;;;;21.80;46.60;;;;;;1466380;79;788;-53
2023/08/29 06:05:19;;;;;;;;;;;21.80;46.70;;;;;;1466980;79;755;-54
2023/08/29 06:07:21;;;;;;;;;;;21.90;46.90;;;;;;1469543;79;795;-52
2023/08/29 06:09:22;;;;;;;;;;;21.80;46.70;;;;;;1461316;79;1154;-54
2023/08/29 06:11:25;;;;;;;;;;;21.80;46.70;;;;;;1472923;79;717;-52
2023/08/29 06:13:27;;;;;;;;;;;21.80;46.70;;;;;;1461745;79;761;-54
2023/08/29 06:15:29;;;;;;;;;;;21.80;46.70;;;;;;1469921;79;797;-54
2023/08/29 06:17:31;;;;;;;;;;;21.70;46.70;;;;;;1462195;79;787;-50
2023/08/29 06:19:33;;;;;;;;;;;21.80;46.80;;;;;;1470482;79;1960;-54
2023/08/29 06:21:35;;;;;;;;;;;21.80;46.80;;;;;;1479588;79;788;-53
2023/08/29 06:23:37;;;;;;;;;;;21.70;46.80;;;;;;1463550;79;722;-54
2023/08/29 06:25:39;;;;;;;;;;;21.80;46.80;;;;;;1473617;79;714;-53
2023/08/29 06:27:41;;;;;;;;;;;21.70;46.80;;;;;;1478632;79;764;-54
2023/08/29 06:29:42;;;;;;;;;;;21.80;46.80;;;;;;1466790;79;1128;-53
2023/08/29 06:31:44;;;;;;;;;;;21.80;46.90;;;;;;1449067;79;756;-54
2023/08/29 06:33:46;;;;;;;;;;;21.80;46.90;;;;;;1453346;79;810;-55
2023/08/29 06:35:48;;;;;;;;;;;21.80;46.90;;;;;;1467446;79;826;-53
2023/08/29 06:37:50;;;;;;;;;;;21.80;47.00;;;;;;1465549;79;738;-53
2023/08/29 06:39:52;;;;;;;;;;;21.80;46.90;;;;;;1450299;79;1951;-52
2023/08/29 06:41:54;;;;;;;;;;;21.80;47.00;;;;;;1463006;79;790;-52
2023/08/29 06:43:56;;;;;;;;;;;21.70;47.00;;;;;;1478609;79;727;-54
2023/08/29 06:45:58;;;;;;;;;;;21.80;47.10;;;;;;1478114;79;819;-52
2023/08/29 06:48:00;;;;;;;;;;;21.80;47.10;;;;;;1454643;79;738;-54
2023/08/29 06:50:01;;;;;;;;;;;21.80;47.10;;;;;;1463340;79;1489;-53
2023/08/29 06:52:03;;;;;;;;;;;21.70;47.10;;;;;;1477906;79;783;-51
2023/08/29 06:54:05;;;;;;;;;;;21.70;47.10;;;;;;1463023;79;706;-54
2023/08/29 06:56:07;;;;;;;;;;;21.80;47.10;;;;;;1453902;79;763;-54
2023/08/29 06:58:09;;;;;;;;;;;21.80;47.20;;;;;;1470774;79;747;-51
2023/08/29 07:00:12;;;;;;;;;;;21.80;47.10;;;;;;1460774;79;1951;-52
2023/08/29 07:02:14;;;;;;;;;;;21.80;47.10;;;;;;1459894;79;760;-52
2023/08/29 07:04:16;;;;;;;;;;;21.70;47.10;;;;;;1466475;79;735;-54
2023/08/29 07:06:18;;;;;;;;;;;21.70;47.10;;;;;;1467173;79;687;-52
2023/08/29 07:08:20;;;;;;;;;;;21.70;47.10;;;;;;1469824;79;803;-54
2023/08/29 07:10:22;;;;;;;;;;;21.70;47.20;;;;;;1468970;79;1133;-53
2023/08/29 07:12:23;;;;;;;;;;;21.70;47.30;;;;;;1474039;79;786;-52
2023/08/29 07:14:25;;;;;;;;;;;21.70;47.30;;;;;;1460028;79;773;-54
2023/08/29 07:16:27;;;;;;;;;;;21.70;47.30;;;;;;1470464;79;712;-54
2023/08/29 07:18:29;;;;;;;;;;;21.70;47.30;;;;;;1475934;79;759;-52
2023/08/29 07:20:31;;;;;;;;;;;21.80;47.30;;;;;;1466592;79;1938;-52
2023/08/29 07:22:33;;;;;;;;;;;21.80;47.40;;;;;;1457712;79;753;-52
2023/08/29 07:24:36;;;;;;;;;;;21.80;47.40;;;;;;1479832;79;731;-53
2023/08/29 07:26:38;;;;;;;;;;;21.70;47.50;;;;;;1473835;79;874;-54
2023/08/29 07:28:39;;;;;;;;;;;21.70;47.50;;;;;;1468697;79;680;-52
2023/08/29 07:30:45;;;;;;;;;;;21.70;47.50;;;;;;1467831;79;1138;-52
2023/08/29 07:32:48;;;;;;;;;;;21.80;47.40;;;;;;1471847;79;745;-53
2023/08/29 07:34:54;;;;;;;;;;;21.80;47.50;;;;;;1460409;79;779;-51
2023/08/29 07:36:56;;;;;;;;;;;21.70;47.50;;;;;;1463974;79;931;-53
2023/08/29 07:38:58;;;;;;;;;;;21.80;47.60;;;;;;1462814;79;750;-50
2023/08/29 07:41:01;;;;;;;;;;;21.80;47.60;;;;;;1451634;79;1966;-54
2023/08/29 07:43:04;;;;;;;;;;;21.80;47.60;;;;;;1474325;79;814;-51
2023/08/29 07:45:06;;;;;;;;;;;21.70;47.60;;;;;;1457631;79;1544;-52
2023/08/29 07:47:08;;;;;;;;;;;21.70;47.60;;;;;;1465941;79;716;-53
2023/08/29 07:49:13;;;;;;;;;;;21.70;47.60;;;;;;1466067;79;1139;-54
2023/08/29 07:51:14;;;;;;;;;;;21.80;47.60;;;;;;1473528;79;1747;-53
2023/08/29 07:53:16;;;;;;;;;;;21.70;47.70;;;;;;1474497;79;775;-52
2023/08/29 07:55:17;;;;;;;;;;;21.80;47.70;;;;;;1463402;79;704;-51
2023/08/29 07:57:19;;;;;;;;;;;21.70;47.70;;;;;;1463936;79;754;-55
2023/08/29 07:59:23;;;;;;;;;;;21.80;47.70;;;;;;1452186;79;1151;-54
2023/08/29 08:01:25;;;;;;;;;;;21.80;47.80;;;;;;1456506;79;1937;-53
2023/08/29 08:03:27;;;;;;;;;;;21.80;47.70;;;;;;1470343;79;793;-51
2023/08/29 08:05:29;;;;;;;;;;;21.80;47.80;;;;;;1473132;79;707;-54
2023/08/29 08:07:31;;;;;;;;;;;21.80;47.80;;;;;;1470547;79;744;-53
2023/08/29 08:09:33;;;;;;;;;;;21.80;47.80;;;;;;1459277;79;1092;-54
2023/08/29 08:11:35;;;;;;;;;;;21.80;47.80;;;;;;1460097;79;789;-50
2023/08/29 08:13:37;;;;;;;;;;;21.80;47.90;;;;;;1462980;79;697;-53
2023/08/29 08:15:39;;;;;;;;;;;21.80;47.80;;;;;;1470137;79;659;-52
2023/08/29 08:17:41;;;;;;;;;;;21.80;47.90;;;;;;1468024;79;805;-53
2023/08/29 08:19:43;;;;;;;;;;;21.80;47.90;;;;;;1467254;79;1127;-53
2023/08/29 08:21:45;;;;;;;;;;;21.70;47.90;;;;;;1461753;79;1964;-50
2023/08/29 08:23:46;;;;;;;;;;;21.80;48.00;;;;;;1456931;79;727;-54
2023/08/29 08:25:48;;;;;;;;;;;21.70;48.00;;;;;;1463789;79;709;-52
2023/08/29 08:27:51;;;;;;;;;;;21.80;48.00;;;;;;1464443;79;676;-51
2023/08/29 08:29:52;;;;;;;;;;;21.80;48.00;;;;;;1464969;79;1158;-52
2023/08/29 08:31:54;;;;;;;;;;;21.70;48.00;;;;;;1461180;79;689;-51
2023/08/29 08:33:56;;;;;;;;;;;21.70;48.10;;;;;;1464740;79;708;-52
2023/08/29 08:35:58;;;;;;;;;;;21.80;48.10;;;;;;1476796;79;701;-51
2023/08/29 08:38:00;;;;;;;;;;;21.80;48.10;;;;;;1463910;79;802;-54
2023/08/29 08:40:09;;;;;;;;;;;21.70;48.10;;;;;;1453390;79;1175;-52
2023/08/29 08:42:07;;;;;;;;;;;21.80;48.20;;;;;;1471857;79;1944;-51
2023/08/29 08:44:09;;;;;;;;;;;21.70;48.20;;;;;;1483913;79;735;-54
2023/08/29 08:46:12;;;;;;;;;;;21.80;48.20;;;;;;1480994;79;739;-54
2023/08/29 08:48:14;;;;;;;;;;;21.70;48.30;;;;;;1467804;79;685;-52
2023/08/29 08:50:16;;;;;;;;;;;21.70;48.30;;;;;;1471028;79;1118;-54
2023/08/29 08:52:17;;;;;;;;;;;21.70;48.30;;;;;;1469682;79;780;-54
2023/08/29 08:54:19;;;;;;;;;;;21.70;48.30;;;;;;1480479;79;720;-54
2023/08/29 08:56:21;;;;;;;;;;;21.70;48.30;;;;;;1474096;79;633;-54
2023/08/29 08:58:24;;;;;;;;;;;21.70;48.30;;;;;;1472871;79;819;-54
2023/08/29 09:00:26;;;;;;;;;;;21.70;48.40;;;;;;1469117;79;1136;-54
2023/08/29 09:02:27;;;;;;;;;;;21.70;48.40;;;;;;1482164;79;1937;-52
2023/08/29 09:04:29;;;;;;;;;;;21.80;48.40;;;;;;1450246;79;810;-52
2023/08/29 09:06:31;;;;;;;;;;;21.70;48.30;;;;;;1465391;79;671;-54
2023/08/29 09:08:33;;;;;;;;;;;21.80;48.40;;;;;;1464288;79;781;-51
2023/08/29 09:10:37;;;;;;;;;;;21.80;48.40;;;;;;1458703;79;1141;-54
2023/08/29 09:12:51;;;;;;;;;;;21.80;48.30;;;;;;1457063;79;785;-54
2023/08/29 09:14:53;;;;;;;;;;;21.80;48.40;;;;;;1465233;79;797;-53
2023/08/29 09:16:59;;;;;;;;;;;21.80;48.40;;;;;;1479898;79;815;-52
2023/08/29 09:19:01;;;;;;;;;;;21.80;48.40;;;;;;1474057;79;753;-53
2023/08/29 09:21:04;;;;;;;;;;;21.70;48.50;;;;;;1463931;79;1957;-51
2023/08/29 09:23:07;;;;;;;;;;;21.80;48.50;;;;;;1469651;79;802;-51
2023/08/29 09:25:09;;;;;;;;;;;21.80;48.50;;;;;;1437704;80;1148;-54
2023/08/29 09:27:11;;;;;;;;;;;21.70;48.50;;;;;;1473928;79;721;-52
2023/08/29 09:29:19;;;;;;;;;;;21.80;48.50;;;;;;1469705;79;1170;-53
2023/08/29 09:31:22;;;;;;;;;;;21.80;48.50;;;;;;1468474;79;737;-51
2023/08/29 09:33:23;;;;;;;;;;;21.80;48.60;;;;;;1465913;79;737;-53
2023/08/29 09:35:25;;;;;;;;;;;21.80;48.60;;;;;;1454906;79;718;-52
2023/08/29 09:37:28;;;;;;;;;;;21.80;48.60;;;;;;1448163;80;1294;-53
2023/08/29 09:39:30;;;;;;;;;;;21.80;48.60;;;;;;1453923;79;1125;-54
2023/08/29 09:41:32;;;;;;;;;;;21.80;48.70;;;;;;1461511;79;1940;-52
2023/08/29 09:43:34;;;;;;;;;;;21.80;48.70;;;;;;1476172;79;712;-53
2023/08/29 09:45:37;;;;;;;;;;;21.80;48.80;;;;;;1454547;80;741;-53
2023/08/29 09:47:39;;;;;;;;;;;21.80;48.80;;;;;;1468561;79;688;-54
2023/08/29 09:49:42;;;;;;;;;;;21.80;48.90;;;;;;1460829;79;1130;-52
2023/08/29 09:51:44;;;;;;;;;;;21.80;48.90;;;;;;1461637;79;762;-54
2023/08/29 09:53:46;;;;;;;;;;;21.70;48.90;;;;;;1465565;79;956;-52
2023/08/29 09:55:49;;;;;;;;;;;21.80;49.00;;;;;;1463153;79;927;-53
2023/08/29 09:57:52;;;;;;;;;;;21.80;49.00;;;;;;1468157;79;2026;-51
2023/08/29 09:59:53;;;;;;;;;;;21.70;49.20;;;;;;1473157;79;1122;-51
2023/08/29 10:01:55;;;;;;;;;;;21.80;49.20;;;;;;1474445;79;1959;-53
2023/08/29 10:03:57;;;;;;;;;;;21.80;49.30;;;;;;1474408;79;813;-51
2023/08/29 10:05:59;;;;;;;;;;;21.80;49.40;;;;;;1449938;80;767;-51
2023/08/29 10:08:03;;;;;;;;;;;21.70;49.30;;;;;;1452498;79;727;-54
2023/08/29 10:10:06;;;;;;;;;;;21.70;49.40;;;;;;1453753;79;1894;-54
2023/08/29 10:12:08;;;;;;;;;;;21.70;49.50;;;;;;1462195;80;762;-51
2023/08/29 10:14:10;;;;;;;;;;;21.70;49.60;;;;;;1461216;79;757;-53
2023/08/29 10:16:13;;;;;;;;;;;21.70;49.60;;;;;;1466684;79;703;-54
2023/08/29 10:18:15;;;;;;;;;;;21.70;49.70;;;;;;1466906;79;805;-54
2023/08/29 10:20:17;;;;;;;;;;;21.70;49.80;;;;;;1464951;79;1150;-53
2023/08/29 10:22:20;;;;;;;;;;;21.80;49.70;;;;;;1464357;79;1910;-52
2023/08/29 10:24:22;;;;;;;;;;;21.70;49.70;;;;;;1451934;79;761;-52
2023/08/29 10:26:25;;;;;;;;;;;21.70;49.70;;;;;;1469312;79;743;-54
2023/08/29 10:28:27;;;;;;;;;;;21.70;49.70;;;;;;1463974;79;725;-50
2023/08/29 10:30:29;;;;;;;;;;;21.70;49.90;;;;;;1454200;79;1144;-54
2023/08/29 10:32:31;;;;;;;;;;;21.70;49.80;;;;;;1464776;79;750;-54
2023/08/29 10:34:33;;;;;;;;;;;21.70;49.90;;;;;;1458346;79;1514;-53
2023/08/29 10:36:36;;;;;;;;;;;21.70;49.80;;;;;;1456506;79;792;-54
2023/08/29 10:38:41;;;;;;;;;;;21.70;49.80;;;;;;1469732;79;760;-51
2023/08/29 10:40:43;;;;;;;;;;;21.70;49.80;;;;;;1464820;79;1128;-54
2023/08/29 10:43:00;;;;;;;;;;;21.60;49.80;;;;;;1474564;79;1918;-51
2023/08/29 10:44:59;;;;;;;;;;;21.70;49.90;;;;;;1466995;79;1547;-56
2023/08/29 10:47:15;;;;;;;;;;;21.70;50.00;;;;;;1450864;79;634;-54
2023/08/29 10:49:17;;;;;;;;;;;21.70;50.00;;;;;;1441993;79;1195;-56
2023/08/29 10:51:23;;;;;;;;;;;21.70;50.00;;;;;;1469666;79;670;-55
2023/08/29 10:53:25;;;;;;;;;;;21.70;50.00;;;;;;1427829;80;798;-55
2023/08/29 10:55:32;;;;;;;;;;;21.70;50.00;;;;;;1448597;80;811;-54
2023/08/29 10:57:34;;;;;;;;;;;21.70;49.80;;;;;;1465660;79;767;-56
2023/08/29 10:59:36;;;;;;;;;;;21.70;49.70;;;;;;1468178;79;1168;-56
2023/08/29 11:01:40;;;;;;;;;;;21.60;49.70;;;;;;1452605;79;1926;-56
2023/08/29 11:03:42;;;;;;;;;;;21.60;49.80;;;;;;1460990;79;1927;-54
2023/08/29 11:05:44;;;;;;;;;;;21.70;50.00;;;;;;1448838;80;824;-54
2023/08/29 11:07:47;;;;;;;;;;;21.70;49.90;;;;;;1446132;81;1126;-55
2023/08/29 11:09:48;;;;;;;;;;;21.70;49.90;;;;;;1465242;79;1162;-55
2023/08/29 11:12:08;;;;;;;;;;;21.60;49.80;;;;;;1482160;79;782;-54
2023/08/29 11:14:10;;;;;;;;;;;21.60;49.80;;;;;;1462024;79;787;-55
2023/08/29 11:16:12;;;;;;;;;;;21.60;49.90;;;;;;1467324;79;822;-55
2023/08/29 11:18:26;;;;;;;;;;;21.60;49.90;;;;;;1450211;79;778;-55
2023/08/29 11:20:24;;;;;;;;;;;21.60;49.90;;;;;;1462165;79;1637;-56
2023/08/29 11:22:28;;;;;;;;;;;21.60;50.00;;;;;;1469122;79;1935;-55
2023/08/29 11:24:30;;;;;;;;;;;21.60;50.00;;;;;;1463576;79;826;-55
2023/08/29 11:26:36;;;;;;;;;;;21.60;50.10;;;;;;1462509;79;779;-55
2023/08/29 11:28:42;;;;;;;;;;;21.60;50.20;;;;;;1470256;79;738;-53
2023/08/29 11:30:48;;;;;;;;;;;21.60;50.20;;;;;;1477493;79;1570;-55
2023/08/29 11:32:50;;;;;;;;;;;21.60;50.30;;;;;;1470639;79;1160;-56
2023/08/29 11:34:52;;;;;;;;;;;21.60;50.20;;;;;;1470753;79;816;-55
2023/08/29 11:36:54;;;;;;;;;;;21.60;50.20;;;;;;1467034;79;708;-54
2023/08/29 11:38:57;;;;;;;;;;;21.60;50.30;;;;;;1469916;79;948;-55
2023/08/29 11:40:59;;;;;;;;;;;21.60;50.20;;;;;;1471692;79;1216;-54
2023/08/29 11:43:01;;;;;;;;;;;21.60;50.20;;;;;;1468928;79;1920;-54
2023/08/29 11:45:05;;;;;;;;;;;21.60;50.10;;;;;;1456137;79;1362;-56
2023/08/29 11:47:09;;;;;;;;;;;21.60;50.20;;;;;;1477783;79;711;-56
2023/08/29 11:49:12;;;;;;;;;;;21.50;50.30;;;;;;1465454;79;1791;-56
2023/08/29 11:51:14;;;;;;;;;;;21.60;50.30;;;;;;1452102;79;738;-57
2023/08/29 11:53:23;;;;;;;;;;;21.50;50.40;;;;;;1459339;79;738;-57
2023/08/29 11:55:25;;;;;;;;;;;21.50;50.50;;;;;;1456198;79;732;-57
2023/08/29 11:57:30;;;;;;;;;;;21.60;50.50;;;;;;1476631;79;794;-56
2023/08/29 11:59:32;;;;;;;;;;;21.60;50.60;;;;;;1467012;79;1316;-57
2023/08/29 12:01:36;;;;;;;;;;;21.60;50.40;;;;;;1461670;79;810;-57
2023/08/29 12:03:38;;;;;;;;;;;21.60;50.50;;;;;;1460564;79;800;-57
2023/08/29 12:05:41;;;;;;;;;;;21.60;50.50;;;;;;1477251;79;808;-56
2023/08/29 12:07:43;;;;;;;;;;;21.60;50.50;;;;;;1462790;79;778;-55
2023/08/29 12:09:45;;;;;;;;;;;21.60;50.50;;;;;;1460228;79;1160;-57